createdAt,value
2022-08-24T00:02:16.428Z,98512.75
2022-08-24T00:04:50.234Z,98521.94
2022-08-24T00:07:26.499Z,98506.59
2022-08-24T00:10:05.011Z,98524.19
2022-08-24T00:12:40.247Z,98511.88
2022-08-24T00:15:13.110Z,98501.34
2022-08-24T00:17:42.560Z,98497.66
2022-08-24T00:20:15.283Z,98498.59
2022-08-24T00:22:53.114Z,98500.91
2022-08-24T00:25:26.747Z,98504.66
2022-08-24T00:28:01.065Z,98499.09
2022-08-24T00:30:35.718Z,98502.63
2022-08-24T00:33:06.357Z,98493.16
2022-08-24T00:35:36.538Z,98520.03
2022-08-24T00:38:10.608Z,98518.75
2022-08-24T00:40:44.533Z,98519.81
2022-08-24T00:43:15.893Z,98503.16
2022-08-24T00:45:55.071Z,98527.63
2022-08-24T00:48:37.076Z,98523.19
2022-08-24T00:51:24.114Z,98528.78
2022-08-24T00:54:07.957Z,98523.63
2022-08-24T00:56:50.357Z,98521.34
2022-08-24T00:59:34.826Z,98515.22
2022-08-24T01:02:19.731Z,98532.00
2022-08-24T01:04:54.964Z,98527.94
2022-08-24T01:07:29.606Z,98528.41
2022-08-24T01:10:05.846Z,98514.22
2022-08-24T01:13:00.132Z,98527.50
2022-08-24T01:15:48.839Z,98537.63
2022-08-24T01:18:41.017Z,98537.25
2022-08-24T01:21:22.092Z,98536.56
2022-08-24T01:24:08.802Z,98530.19
2022-08-24T01:26:49.801Z,98524.59
2022-08-24T01:29:29.319Z,98535.88
2022-08-24T01:32:02.864Z,98534.81
2022-08-24T01:34:32.114Z,98529.81
2022-08-24T01:37:30.095Z,98532.84
2022-08-24T01:40:03.117Z,98528.66
2022-08-24T01:42:39.109Z,98533.44
2022-08-24T01:45:09.479Z,98523.66
2022-08-24T01:47:46.101Z,98530.31
2022-08-24T01:50:16.468Z,98525.19
2022-08-24T01:53:05.009Z,98519.81
2022-08-24T01:55:49.001Z,98520.03
2022-08-24T01:58:21.127Z,98507.56
2022-08-24T02:00:59.702Z,98508.13
2022-08-24T02:03:30.426Z,98518.91
2022-08-24T02:06:01.114Z,98510.13
2022-08-24T02:08:39.722Z,98506.50
2022-08-24T02:11:21.388Z,98509.41
2022-08-24T02:14:01.209Z,98500.09
2022-08-24T02:16:34.770Z,98509.38
2022-08-24T02:19:08.675Z,98507.41
2022-08-24T02:21:45.033Z,98512.19
2022-08-24T02:24:23.810Z,98512.53
2022-08-24T02:26:53.173Z,98505.44
2022-08-24T02:32:08.571Z,98506.13
2022-08-24T02:34:46.473Z,98470.38
2022-08-24T02:37:24.434Z,98505.00
2022-08-24T02:39:55.736Z,98489.47
2022-08-24T02:42:32.058Z,98507.34
2022-08-24T02:45:03.605Z,98488.91
2022-08-24T02:47:39.137Z,98507.16
2022-08-24T02:50:18.995Z,98502.16
2022-08-24T02:52:53.295Z,98492.75
2022-08-24T02:55:42.764Z,98498.22
2022-08-24T02:58:18.121Z,98503.66
2022-08-24T03:00:51.940Z,98507.13
2022-08-24T03:03:26.674Z,98503.50
2022-08-24T03:06:03.156Z,98495.84
2022-08-24T03:08:35.645Z,98507.50
2022-08-24T03:11:09.366Z,98509.69
2022-08-24T03:13:46.271Z,98494.56
2022-08-24T03:16:25.812Z,98501.31
2022-08-24T03:18:54.863Z,98504.09
2022-08-24T03:21:29.010Z,98513.34
2022-08-24T03:24:06.542Z,98498.75
2022-08-24T03:26:47.068Z,98506.50
2022-08-24T03:29:17.014Z,98498.28
2022-08-24T03:31:55.924Z,98519.66
2022-08-24T03:34:44.282Z,98515.94
2022-08-24T03:37:19.391Z,98520.09
2022-08-24T03:39:51.542Z,98517.94
2022-08-24T03:42:38.547Z,98528.38
2022-08-24T03:45:21.965Z,98519.41
2022-08-24T03:47:52.154Z,98521.09
2022-08-24T03:50:30.462Z,98524.25
2022-08-24T03:53:11.846Z,98528.31
2022-08-24T03:55:43.682Z,98522.31
2022-08-24T03:58:19.647Z,98526.13
2022-08-24T04:00:50.155Z,98526.28
2022-08-24T04:03:24.686Z,98520.00
2022-08-24T04:06:08.140Z,98525.81
2022-08-24T04:08:40.271Z,98530.41
2022-08-24T04:11:21.483Z,98532.69
2022-08-24T04:14:00.243Z,98537.78
2022-08-24T04:16:36.188Z,98548.66
2022-08-24T04:19:26.847Z,98525.13
2022-08-24T04:22:08.527Z,98531.94
2022-08-24T04:24:40.618Z,98550.22
2022-08-24T04:27:20.263Z,98547.03
2022-08-24T04:29:54.490Z,98553.13
2022-08-24T04:32:30.194Z,98531.13
2022-08-24T04:35:14.578Z,98567.19
2022-08-24T04:37:51.020Z,98568.81
2022-08-24T04:40:29.678Z,98562.94
2022-08-24T04:43:07.382Z,98569.16
2022-08-24T04:45:45.356Z,98573.53
2022-08-24T04:48:16.521Z,98567.13
2022-08-24T04:50:51.922Z,98573.88
2022-08-24T04:53:26.318Z,98571.78
2022-08-24T04:56:01.262Z,98577.41
2022-08-24T04:58:41.898Z,98586.72
2022-08-24T05:01:20.889Z,98586.03
2022-08-24T05:03:56.714Z,98590.03
2022-08-24T05:06:39.267Z,98589.28
2022-08-24T05:09:11.315Z,98587.94
2022-08-24T05:11:42.049Z,98595.38
2022-08-24T05:14:31.822Z,98595.22
2022-08-24T05:17:03.391Z,98599.13
2022-08-24T05:19:39.736Z,98574.19
2022-08-24T05:22:18.146Z,98602.06
2022-08-24T05:24:54.795Z,98590.97
2022-08-24T05:27:41.520Z,98590.69
2022-08-24T05:30:16.390Z,98605.94
2022-08-24T05:32:49.735Z,98598.66
2022-08-24T05:35:21.842Z,98602.25
2022-08-24T05:37:57.280Z,98606.53
2022-08-24T05:40:42.021Z,98591.47
2022-08-24T05:43:23.527Z,98603.66
2022-08-24T05:45:56.212Z,98605.03
2022-08-24T05:48:30.920Z,98600.97
2022-08-24T05:51:37.644Z,98590.94
2022-08-24T05:57:05.367Z,98589.69
2022-08-24T05:59:50.422Z,98573.59
2022-08-24T06:02:27.349Z,98590.84
2022-08-24T06:05:02.393Z,98583.25
2022-08-24T06:07:42.243Z,98587.56
2022-08-24T06:10:35.938Z,98584.53
2022-08-24T06:13:07.323Z,98588.59
2022-08-24T06:15:41.765Z,98587.31
2022-08-24T06:18:17.115Z,98579.84
2022-08-24T06:21:01.167Z,98582.66
2022-08-24T06:23:42.046Z,98559.56
2022-08-24T06:26:33.548Z,98577.41
2022-08-24T06:29:06.635Z,98581.13
2022-08-24T06:31:59.920Z,98583.16
2022-08-24T06:34:32.677Z,98588.00
2022-08-24T06:37:11.370Z,98575.75
2022-08-24T06:39:55.929Z,98579.44
2022-08-24T06:42:37.729Z,98580.25
2022-08-24T06:45:24.834Z,98581.44
2022-08-24T06:48:04.923Z,98568.06
2022-08-24T06:50:41.380Z,98594.41
2022-08-24T06:53:24.579Z,98589.44
2022-08-24T06:56:01.380Z,98589.91
2022-08-24T06:58:41.839Z,98602.47
2022-08-24T07:01:24.784Z,98587.19
2022-08-24T07:04:06.892Z,98595.13
2022-08-24T07:07:02.281Z,98598.34
2022-08-24T07:09:33.473Z,98592.34
2022-08-24T07:12:05.224Z,98597.66
2022-08-24T07:14:38.798Z,98595.31
2022-08-24T07:17:18.356Z,98592.59
2022-08-24T07:19:53.348Z,98603.66
2022-08-24T07:22:46.835Z,98592.72
2022-08-24T07:25:21.228Z,98592.66
2022-08-24T07:28:03.140Z,98582.09
2022-08-24T07:33:25.287Z,98591.56
2022-08-24T07:35:57.843Z,98569.28
2022-08-24T07:38:34.484Z,98577.53
2022-08-24T07:41:38.296Z,98582.47
2022-08-24T07:44:08.592Z,98582.81
2022-08-24T07:46:42.500Z,98581.47
2022-08-24T07:49:33.063Z,98574.00
2022-08-24T07:52:11.639Z,98587.53
2022-08-24T07:54:42.298Z,98579.69
2022-08-24T07:57:19.183Z,98583.09
2022-08-24T07:59:56.212Z,98588.34
2022-08-24T08:02:30.829Z,98586.78
2022-08-24T08:05:08.306Z,98582.69
2022-08-24T08:07:52.159Z,98589.56
2022-08-24T08:10:29.214Z,98578.38
2022-08-24T08:13:00.470Z,98583.19
2022-08-24T08:15:31.452Z,98587.22
2022-08-24T08:18:28.308Z,98586.88
2022-08-24T08:21:03.403Z,98584.47
2022-08-24T08:23:54.342Z,98588.84
2022-08-24T08:26:47.456Z,98583.66
2022-08-24T08:29:45.901Z,98588.69
2022-08-24T08:32:20.881Z,98585.31
2022-08-24T08:35:02.890Z,98578.66
2022-08-24T08:37:38.720Z,98560.72
2022-08-24T08:40:22.688Z,98578.22
2022-08-24T08:43:15.167Z,98567.72
2022-08-24T08:45:56.469Z,98564.16
2022-08-24T08:55:53.419Z,98553.69
2022-08-24T08:58:53.717Z,98549.72
2022-08-24T09:01:50.853Z,98556.72
2022-08-24T09:04:59.843Z,98547.13
2022-08-24T09:11:35.867Z,98540.66
2022-08-24T09:14:16.003Z,98538.38
2022-08-24T09:17:15.061Z,98529.69
2022-08-24T09:20:26.350Z,98523.28
2022-08-24T09:23:34.527Z,98521.25
2022-08-24T09:26:34.988Z,98517.06
2022-08-24T09:29:16.725Z,98503.81
2022-08-24T09:32:09.396Z,98506.22
2022-08-24T09:35:06.059Z,98504.31
2022-08-24T09:38:00.565Z,98500.84
2022-08-24T09:40:44.360Z,98499.56
2022-08-24T09:43:51.960Z,98495.09
2022-08-24T09:46:53.097Z,98490.28
2022-08-24T09:50:21.897Z,98480.19
2022-08-24T09:53:38.782Z,98483.50
2022-08-24T09:57:09.390Z,98473.00
2022-08-24T09:59:54.382Z,98470.19
2022-08-24T10:03:10.333Z,98462.91
2022-08-24T10:06:21.158Z,98466.16
2022-08-24T10:09:24.378Z,98461.97
2022-08-24T10:12:27.168Z,98457.97
2022-08-24T10:15:03.102Z,98452.22
2022-08-24T10:17:56.404Z,98445.78
2022-08-24T10:21:19.999Z,98438.50
2022-08-24T10:24:14.535Z,98442.09
2022-08-24T10:27:29.511Z,98432.41
2022-08-24T10:30:41.618Z,98439.69
2022-08-24T10:33:37.241Z,98431.47
2022-08-24T10:36:48.325Z,98426.81
2022-08-24T10:40:02.188Z,98421.91
2022-08-24T10:43:36.822Z,98419.44
2022-08-24T10:46:46.955Z,98411.78
2022-08-24T10:50:35.880Z,98426.00
2022-08-24T10:53:22.013Z,98416.41
2022-08-24T10:56:19.589Z,98423.06
2022-08-24T10:59:13.707Z,98405.13
2022-08-24T11:01:44.231Z,98385.47
2022-08-24T11:04:28.747Z,98404.44
2022-08-24T11:07:29.179Z,98408.56
2022-08-24T11:10:05.125Z,98402.75
2022-08-24T11:12:50.049Z,98400.06
2022-08-24T11:15:26.782Z,98400.31
2022-08-24T11:18:07.288Z,98401.22
2022-08-24T11:20:48.054Z,98407.66
2022-08-24T11:23:31.581Z,98404.72
2022-08-24T11:26:06.249Z,98399.97
2022-08-24T11:28:46.635Z,98405.81
2022-08-24T11:31:35.914Z,98399.88
2022-08-24T11:34:15.306Z,98403.88
2022-08-24T11:36:49.391Z,98415.72
2022-08-24T11:39:44.880Z,98421.97
2022-08-24T11:43:05.158Z,98409.00
2022-08-24T11:46:06.350Z,98401.59
2022-08-24T11:48:53.368Z,98406.25
2022-08-24T11:52:02.862Z,98402.53
2022-08-24T11:55:00.175Z,98400.03
2022-08-24T11:57:48.274Z,98402.44
2022-08-24T12:00:30.701Z,98395.75
2022-08-24T12:03:29.306Z,98397.56
2022-08-24T12:06:55.582Z,98392.81
2022-08-24T12:09:57.342Z,98388.69
2022-08-24T12:12:52.029Z,98389.72
2022-08-24T12:15:35.950Z,98388.63
2022-08-24T12:18:32.448Z,98383.59
2022-08-24T12:21:02.732Z,98380.22
2022-08-24T12:23:55.721Z,98391.16
2022-08-24T12:26:36.777Z,98383.72
2022-08-24T12:32:22.860Z,98381.84
2022-08-24T12:38:32.177Z,98370.63
2022-08-24T12:41:19.268Z,98357.63
2022-08-24T12:44:12.356Z,98363.19
2022-08-24T12:46:43.610Z,98366.28
2022-08-24T12:49:48.186Z,98362.16
2022-08-24T12:52:31.080Z,98370.06
2022-08-24T12:55:25.382Z,98355.78
2022-08-24T12:58:34.824Z,98362.47
2022-08-24T13:01:10.881Z,98355.38
2022-08-24T13:03:46.474Z,98344.69
2022-08-24T13:06:41.011Z,98346.66
2022-08-24T13:09:23.410Z,98350.63
2022-08-24T13:12:08.432Z,98347.63
2022-08-24T13:14:41.033Z,98347.06
2022-08-24T13:17:15.913Z,98359.56
2022-08-24T13:20:23.623Z,98338.28
2022-08-24T13:23:29.967Z,98340.38
2022-08-24T13:26:29.726Z,98339.31
2022-08-24T13:29:08.466Z,98337.88
2022-08-24T13:31:45.443Z,98343.91
2022-08-24T13:34:22.040Z,98353.28
2022-08-24T13:37:30.867Z,98351.50
2022-08-24T13:40:12.309Z,98341.66
2022-08-24T13:43:08.404Z,98336.72
2022-08-24T13:45:52.267Z,98352.03
2022-08-24T13:48:57.007Z,98340.16
2022-08-24T13:55:09.710Z,98350.31
2022-08-24T13:57:58.649Z,98350.84
2022-08-24T14:00:44.007Z,98347.44
2022-08-24T14:03:31.693Z,98343.25
2022-08-24T14:07:02.837Z,98343.44
2022-08-24T14:13:28.966Z,98338.84
2022-08-24T14:17:19.865Z,98345.22
2022-08-24T14:20:14.694Z,98344.75
2022-08-24T14:23:36.089Z,98344.78
2022-08-24T14:27:02.565Z,98338.75
2022-08-24T14:29:37.021Z,98344.72
2022-08-24T14:32:12.438Z,98335.09
2022-08-24T14:35:29.247Z,98337.84
2022-08-24T14:38:14.599Z,98336.31
2022-08-24T14:41:10.953Z,98334.06
2022-08-24T14:44:28.561Z,98338.13
2022-08-24T14:47:28.282Z,98343.56
2022-08-24T14:50:27.376Z,98331.75
2022-08-24T14:53:24.155Z,98337.03
2022-08-24T14:56:51.613Z,98341.38
2022-08-24T14:59:49.237Z,98331.72
2022-08-24T15:02:44.148Z,98336.78
2022-08-24T15:05:44.319Z,98328.78
2022-08-24T15:08:36.084Z,98322.81
2022-08-24T15:11:32.837Z,98322.72
2022-08-24T15:14:19.799Z,98322.47
2022-08-24T15:17:13.625Z,98320.53
2022-08-24T15:20:31.369Z,98318.63
2022-08-24T15:23:33.072Z,98314.69
2022-08-24T15:26:19.519Z,98323.16
2022-08-24T15:29:01.690Z,98318.59
2022-08-24T15:31:43.062Z,98325.34
2022-08-24T15:34:13.781Z,98326.56
2022-08-24T15:36:51.852Z,98318.97
2022-08-24T15:39:32.644Z,98316.00
2022-08-24T15:42:13.384Z,98326.19
2022-08-24T15:44:55.046Z,98321.38
2022-08-24T15:47:39.177Z,98327.47
2022-08-24T15:50:37.178Z,98330.66
2022-08-24T15:53:29.410Z,98323.03
2022-08-24T15:56:01.969Z,98326.59
2022-08-24T15:58:46.150Z,98320.16
2022-08-24T16:01:36.970Z,98331.22
2022-08-24T16:04:17.181Z,98326.63
2022-08-24T16:06:58.295Z,98330.66
2022-08-24T16:09:35.505Z,98332.47
2022-08-24T16:12:33.876Z,98330.16
2022-08-24T16:15:28.007Z,98326.09
2022-08-24T16:18:02.491Z,98330.84
2022-08-24T16:20:36.495Z,98334.41
2022-08-24T16:23:34.431Z,98329.53
2022-08-24T16:26:37.552Z,98339.53
2022-08-24T16:29:13.733Z,98338.66
2022-08-24T16:31:55.051Z,98329.09
2022-08-24T16:34:47.607Z,98328.38
2022-08-24T16:37:24.454Z,98314.84
2022-08-24T16:39:55.684Z,98332.38
2022-08-24T16:42:37.242Z,98336.19
2022-08-24T16:45:11.899Z,98336.88
2022-08-24T16:47:46.479Z,98335.94
2022-08-24T16:50:27.519Z,98343.59
2022-08-24T16:52:59.648Z,98325.47
2022-08-24T16:55:32.265Z,98344.03
2022-08-24T16:58:04.757Z,98347.19
2022-08-24T17:00:35.383Z,98345.06
2022-08-24T17:03:04.664Z,98342.66
2022-08-24T17:05:41.541Z,98345.25
2022-08-24T17:08:18.667Z,98356.16
2022-08-24T17:10:50.416Z,98355.81
2022-08-24T17:13:46.346Z,98352.44
2022-08-24T17:16:25.223Z,98348.16
2022-08-24T17:18:57.536Z,98353.19
2022-08-24T17:21:29.700Z,98352.44
2022-08-24T17:23:58.665Z,98353.31
2022-08-24T17:26:48.572Z,98354.19
2022-08-24T17:29:28.899Z,98362.03
2022-08-24T17:32:01.362Z,98367.44
2022-08-24T17:34:35.205Z,98378.56
2022-08-24T17:37:07.373Z,98374.03
2022-08-24T17:39:41.487Z,98363.63
2022-08-24T17:42:47.241Z,98372.13
2022-08-24T17:45:25.784Z,98375.25
2022-08-24T17:48:06.219Z,98379.78
2022-08-24T17:50:43.411Z,98382.25
2022-08-24T17:53:15.249Z,98390.06
2022-08-24T17:55:57.745Z,98385.59
2022-08-24T17:58:28.591Z,98387.19
2022-08-24T18:01:06.663Z,98402.56
2022-08-24T18:03:38.505Z,98396.56
2022-08-24T18:06:10.033Z,98407.16
2022-08-24T18:08:38.467Z,98405.53
2022-08-24T18:11:12.794Z,98406.72
2022-08-24T18:13:43.993Z,98415.22
2022-08-24T18:16:21.390Z,98417.63
2022-08-24T18:18:55.757Z,98428.97
2022-08-24T18:21:27.525Z,98422.44
2022-08-24T18:24:06.149Z,98432.19
2022-08-24T18:26:47.951Z,98426.88
2022-08-24T18:29:26.879Z,98436.53
2022-08-24T18:32:06.631Z,98438.09
2022-08-24T18:34:38.564Z,98449.78
2022-08-24T18:37:16.143Z,98445.75
2022-08-24T18:39:48.412Z,98461.47
2022-08-24T18:42:20.048Z,98463.44
2022-08-24T18:45:04.350Z,98464.13
2022-08-24T18:47:39.707Z,98466.97
2022-08-24T18:50:13.001Z,98473.81
2022-08-24T18:52:51.932Z,98476.97
2022-08-24T18:55:23.480Z,98489.81
2022-08-24T18:57:53.095Z,98484.13
2022-08-24T19:00:24.562Z,98488.16
2022-08-24T19:02:58.830Z,98471.47
2022-08-24T19:05:31.195Z,98486.56
2022-08-24T19:08:00.966Z,98483.28
2022-08-24T19:10:40.227Z,98492.09
2022-08-24T19:13:23.382Z,98470.59
2022-08-24T19:15:57.197Z,98486.47
2022-08-24T19:18:29.804Z,98498.22
2022-08-24T19:21:15.116Z,98496.41
2022-08-24T19:23:47.855Z,98497.72
2022-08-24T19:26:33.095Z,98492.81
2022-08-24T19:29:01.270Z,98499.25
2022-08-24T19:31:33.057Z,98502.06
2022-08-24T19:34:03.771Z,98484.97
2022-08-24T19:36:34.846Z,98486.78
2022-08-24T19:39:08.602Z,98514.63
2022-08-24T19:41:42.901Z,98486.47
2022-08-24T19:44:32.648Z,98505.13
2022-08-24T19:47:09.866Z,98513.09
2022-08-24T19:49:44.258Z,98499.63
2022-08-24T19:52:14.792Z,98514.28
2022-08-24T19:54:47.250Z,98511.72
2022-08-24T19:57:44.026Z,98515.06
2022-08-24T20:00:32.429Z,98519.06
2022-08-24T20:03:08.767Z,98518.72
2022-08-24T20:05:42.376Z,98470.13
2022-08-24T20:08:17.180Z,98513.75
2022-08-24T20:10:51.128Z,98527.53
2022-08-24T20:13:22.444Z,98521.38
2022-08-24T20:15:56.584Z,98521.34
2022-08-24T20:18:36.073Z,98524.28
2022-08-24T20:21:07.345Z,98527.53
2022-08-24T20:23:40.427Z,98528.16
2022-08-24T20:26:16.595Z,98534.00
2022-08-24T20:28:57.887Z,98542.34
2022-08-24T20:31:35.617Z,98540.28
2022-08-24T20:34:14.778Z,98539.06
2022-08-24T20:36:54.321Z,98541.88
2022-08-24T20:39:26.513Z,98544.53
2022-08-24T20:41:58.808Z,98557.31
2022-08-24T20:44:28.895Z,98550.28
2022-08-24T20:47:02.489Z,98553.88
2022-08-24T20:49:42.142Z,98559.03
2022-08-24T20:52:12.040Z,98548.19
2022-08-24T20:54:48.455Z,98540.56
2022-08-24T20:57:30.320Z,98549.78
2022-08-24T21:00:01.333Z,98549.63
2022-08-24T21:02:45.047Z,98542.53
2022-08-24T21:05:27.759Z,98548.78
2022-08-24T21:08:07.455Z,98537.59
2022-08-24T21:10:48.082Z,98544.69
2022-08-24T21:13:23.779Z,98543.84
2022-08-24T21:15:54.372Z,98542.47
2022-08-24T21:18:24.531Z,98559.63
2022-08-24T21:21:03.915Z,98568.28
2022-08-24T21:23:43.795Z,98576.22
2022-08-24T21:26:18.088Z,98554.25
2022-08-24T21:28:52.237Z,98575.94
2022-08-24T21:31:27.963Z,98572.47
2022-08-24T21:34:15.883Z,98576.25
2022-08-24T21:36:49.728Z,98578.84
2022-08-24T21:39:26.273Z,98569.31
2022-08-24T21:41:57.728Z,98554.34
2022-08-24T21:44:40.835Z,98577.44
2022-08-24T21:47:13.034Z,98576.72
2022-08-24T21:49:45.201Z,98571.81
2022-08-24T21:52:13.464Z,98557.19
2022-08-24T21:54:47.186Z,98560.41
2022-08-24T21:57:23.215Z,98557.06
2022-08-24T22:00:05.002Z,98546.75
2022-08-24T22:02:39.107Z,98556.50
2022-08-24T22:05:13.365Z,98555.88
2022-08-24T22:07:43.877Z,98541.63
2022-08-24T22:10:22.231Z,98554.25
2022-08-24T22:12:54.338Z,98549.59
2022-08-24T22:15:28.670Z,98551.44
2022-08-24T22:17:57.389Z,98551.38
2022-08-24T22:20:28.482Z,98555.00
2022-08-24T22:23:12.234Z,98552.91
2022-08-24T22:25:44.341Z,98526.00
2022-08-24T22:28:19.791Z,98544.66
2022-08-24T22:30:54.483Z,98543.66
2022-08-24T22:33:28.975Z,98534.03
2022-08-24T22:36:06.460Z,98518.63
2022-08-24T22:38:44.465Z,98534.81
2022-08-24T22:44:16.478Z,98545.28
2022-08-24T22:46:48.315Z,98539.28
2022-08-24T22:49:21.061Z,98543.16
2022-08-24T22:51:52.364Z,98532.88
2022-08-24T22:54:26.736Z,98526.34
2022-08-24T22:57:00.825Z,98523.69
2022-08-24T22:59:42.841Z,98526.22
2022-08-24T23:02:18.137Z,98524.50
2022-08-24T23:04:59.490Z,98525.41
2022-08-24T23:07:32.138Z,98526.06
2022-08-24T23:10:05.225Z,98520.22
2022-08-24T23:12:35.433Z,98518.13
2022-08-24T23:15:07.437Z,98519.16
2022-08-24T23:17:45.519Z,98523.50
2022-08-24T23:20:15.977Z,98519.16
2022-08-24T23:23:02.240Z,98523.41
2022-08-24T23:25:30.139Z,98525.53
2022-08-24T23:28:08.870Z,98502.31
2022-08-24T23:30:38.084Z,98527.41
2022-08-24T23:33:07.238Z,98529.78
2022-08-24T23:35:44.239Z,98524.06
2022-08-24T23:38:17.821Z,98530.28
2022-08-24T23:40:52.214Z,98474.75
2022-08-24T23:43:23.713Z,98536.88
2022-08-24T23:46:02.963Z,98528.69
2022-08-24T23:48:39.965Z,98526.25
2022-08-24T23:51:24.034Z,98524.53
2022-08-24T23:53:58.191Z,98526.00
2022-08-24T23:56:41.215Z,98520.81
2022-08-24T23:59:14.455Z,98524.09
